Time;durP1;ratioP1;P1;durP2;ratioP2;P2;SDS_P1;SDS_P2;PMS_P1;PMS_P2;Temp;Humidity;BMP_temperature;BMP_pressure;BME280_temperature;BME280_humidity;BME280_pressure;Samples;Min_cycle;Max_cycle;Signal;HPM_P1;HPM_P2
2023/07/09 00:01:24;;;;;;;183.02;175.02;;;;;;;33.85;31.18;101556.88;5092871;28;20032;-70
2023/07/09 00:03:51;;;;;;;180.02;172.25;;;;;;;33.81;30.88;101557.63;5094468;28;20491;-70
2023/07/09 00:06:18;;;;;;;178.07;169.73;;;;;;;33.79;31.11;101562.81;5094213;28;20036;-70
2023/07/09 00:08:46;;;;;;;176.68;168.40;;;;;;;33.76;30.91;101557.16;5093986;28;20063;-70
2023/07/09 00:11:12;;;;;;;182.60;174.75;;;;;;;33.73;31.22;101560.75;5093593;28;20472;-75
2023/07/09 00:13:38;;;;;;;174.23;166.65;;;;;;;33.70;31.04;101558.72;5094263;28;20077;-70
2023/07/09 00:16:11;;;;;;;178.55;170.75;;;;;;;33.66;31.31;101569.84;5093753;28;20085;-71
2023/07/09 00:18:37;;;;;;;174.48;166.57;;;;;;;33.64;31.02;101568.63;5094251;28;20452;-71
2023/07/09 00:21:02;;;;;;;176.40;168.55;;;;;;;33.60;31.46;101574.19;5092224;28;20032;-70
2023/07/09 00:23:29;;;;;;;181.18;173.23;;;;;;;33.57;31.38;101572.97;5093653;28;20483;-70
2023/07/09 00:25:55;;;;;;;178.02;170.18;;;;;;;33.53;31.61;101572.06;5092249;28;20123;-70
2023/07/09 00:28:20;;;;;;;178.07;170.30;;;;;;;33.51;31.35;101584.84;5093289;28;20090;-71
2023/07/09 00:30:47;;;;;;;170.38;162.77;;;;;;;33.48;31.55;101583.59;5092358;28;20609;-70
2023/07/09 00:33:16;;;;;;;180.82;172.93;;;;;;;33.44;31.72;101582.78;5093575;28;20107;-71
2023/07/09 00:35:46;;;;;;;174.07;166.57;;;;;;;33.41;31.61;101583.50;5093536;28;20032;-70
2023/07/09 00:38:22;;;;;;;176.93;168.55;;;;;;;33.38;31.33;101584.28;5094030;28;20036;-71
2023/07/09 00:41:01;;;;;;;181.20;172.98;;;;;;;33.34;31.64;101580.59;5092187;28;20040;-70
2023/07/09 00:43:31;;;;;;;177.35;169.05;;;;;;;33.30;31.66;101582.56;5093552;28;20043;-71
2023/07/09 00:46:26;;;;;;;175.55;166.77;;;;;;;33.26;31.61;101573.28;5093894;28;20514;-73
2023/07/09 00:49:04;;;;;;;170.85;162.85;;;;;;;33.23;31.62;101576.84;5055930;28;20033;-71
2023/07/09 00:51:32;;;;;;;168.23;160.45;;;;;;;33.19;31.92;101580.41;5093243;28;20487;-72
2023/07/09 00:54:07;;;;;;;168.45;160.82;;;;;;;33.15;32.01;101582.34;5093408;28;20051;-71
2023/07/09 00:56:42;;;;;;;171.55;163.93;;;;;;;33.12;31.82;101585.91;5093478;28;20039;-70
2023/07/09 00:59:13;;;;;;;171.10;162.88;;;;;;;33.10;31.83;101581.88;5093339;28;20028;-70
2023/07/09 01:01:40;;;;;;;172.25;164.25;;;;;;;33.05;32.02;101580.19;5092942;28;20028;-71
2023/07/09 01:04:05;;;;;;;171.57;163.82;;;;;;;33.03;31.78;101579.75;5093264;28;20068;-71
2023/07/09 01:06:51;;;;;;;171.38;163.68;;;;;;;33.00;31.56;101583.28;5093077;28;20064;-70
2023/07/09 01:09:17;;;;;;;179.43;171.43;;;;;;;32.96;31.85;101576.81;5093421;28;20028;-70
2023/07/09 01:11:43;;;;;;;166.73;158.80;;;;;;;32.93;31.99;101583.19;5092701;28;20055;-71
2023/07/09 01:14:11;;;;;;;171.40;163.50;;;;;;;32.89;32.26;101574.75;5093646;28;20360;-70
2023/07/09 01:16:45;;;;;;;173.35;165.13;;;;;;;32.87;32.45;101584.69;5093045;28;20107;-70
2023/07/09 01:19:13;;;;;;;170.50;162.13;;;;;;;32.83;32.42;101587.41;5093174;28;20032;-70
2023/07/09 01:21:39;;;;;;;169.93;162.23;;;;;;;32.79;32.54;101586.56;5093252;28;20039;-70
2023/07/09 01:24:35;;;;;;;174.70;165.82;;;;;;;32.76;32.56;101585.34;5093369;28;20028;-71
2023/07/09 01:27:02;;;;;;;169.13;160.93;;;;;;;32.72;32.40;101592.84;5093374;28;20030;-70
2023/07/09 01:29:33;;;;;;;173.43;165.00;;;;;;;32.70;32.45;101594.41;5092944;28;20036;-71
2023/07/09 01:31:58;;;;;;;167.77;159.18;;;;;;;32.67;32.78;101592.34;5093233;28;20024;-72
2023/07/09 01:34:25;;;;;;;169.77;161.35;;;;;;;32.62;32.52;101582.28;5092627;28;20365;-75
2023/07/09 01:36:51;;;;;;;168.55;159.77;;;;;;;32.59;32.81;101594.22;5093436;28;20082;-70
2023/07/09 01:39:17;;;;;;;177.93;169.43;;;;;;;32.57;33.01;101602.19;5094402;28;20074;-70
2023/07/09 01:41:42;;;;;;;164.63;155.73;;;;;;;32.53;32.73;101592.91;5097203;28;20035;-71
2023/07/09 01:44:08;;;;;;;165.50;157.73;;;;;;;32.49;32.96;101598.44;5096581;28;20028;-70
2023/07/09 01:46:33;;;;;;;166.50;158.40;;;;;;;32.47;33.02;101599.97;5096546;28;20032;-71
2023/07/09 01:48:58;;;;;;;173.45;163.65;;;;;;;32.44;33.12;101601.53;5096989;28;20086;-71
2023/07/09 01:51:25;;;;;;;163.23;155.25;;;;;;;32.41;33.23;101595.84;5096337;28;20406;-78
2023/07/09 01:53:51;;;;;;;166.30;156.65;;;;;;;32.38;33.29;101599.41;5096314;28;20077;-70
2023/07/09 01:56:16;;;;;;;162.98;154.65;;;;;;;32.34;33.35;101602.94;5095697;28;20114;-70
2023/07/09 01:58:41;;;;;;;165.55;156.73;;;;;;;32.31;33.25;101598.09;5096561;28;20154;-70
2023/07/09 02:01:08;;;;;;;165.40;155.90;;;;;;;32.27;33.51;101597.22;5096245;28;20455;-71
2023/07/09 02:03:33;;;;;;;167.85;158.82;;;;;;;32.25;33.47;101598.75;5096110;28;20036;-72
2023/07/09 02:05:59;;;;;;;162.02;152.82;;;;;;;32.21;33.87;101590.31;5096302;28;20024;-71
2023/07/09 02:08:25;;;;;;;159.88;150.10;;;;;;;32.19;33.71;101595.47;5096098;28;20105;-80
2023/07/09 02:10:50;;;;;;;160.57;152.40;;;;;;;32.15;33.61;101591.78;5096484;28;20035;-72
2023/07/09 02:13:17;;;;;;;158.23;149.70;;;;;;;32.12;33.43;101598.94;5096607;28;20128;-72
2023/07/09 02:15:44;;;;;;;162.60;153.05;;;;;;;32.10;33.96;101600.47;5095902;28;20044;-72
2023/07/09 02:18:10;;;;;;;165.95;155.88;;;;;;;32.06;33.64;101594.03;5096145;28;20046;-70
2023/07/09 02:20:35;;;;;;;162.50;153.55;;;;;;;32.03;33.76;101590.00;5094510;28;20094;-70
2023/07/09 02:23:02;;;;;;;161.80;151.68;;;;;;;32.01;33.99;101588.75;5095843;28;20081;-71
2023/07/09 02:25:27;;;;;;;162.40;153.07;;;;;;;31.98;33.98;101595.03;5095656;28;20032;-78
2023/07/09 02:27:53;;;;;;;155.95;147.30;;;;;;;31.94;33.94;101595.00;5096031;28;20028;-70
2023/07/09 02:30:18;;;;;;;157.95;148.38;;;;;;;31.91;34.16;101587.31;5095960;28;20032;-70
2023/07/09 02:32:44;;;;;;;159.20;150.02;;;;;;;31.88;33.86;101588.88;5095623;28;20115;-71
2023/07/09 02:35:09;;;;;;;161.20;151.70;;;;;;;31.85;34.10;101598.00;5095405;28;20043;-71
2023/07/09 02:37:34;;;;;;;163.30;154.15;;;;;;;31.82;34.05;101595.91;5095795;28;20115;-70
2023/07/09 02:40:00;;;;;;;157.43;146.90;;;;;;;31.79;34.15;101596.66;5095518;28;20032;-70
2023/07/09 02:42:25;;;;;;;159.25;150.15;;;;;;;31.77;34.30;101598.19;5095482;28;20063;-71
2023/07/09 02:44:51;;;;;;;155.50;145.98;;;;;;;31.75;34.31;101592.16;5095827;28;20136;-71
2023/07/09 02:47:17;;;;;;;155.73;146.70;;;;;;;31.71;34.52;101596.88;5095920;28;20089;-71
2023/07/09 02:49:42;;;;;;;159.25;149.77;;;;;;;31.67;34.34;101592.00;5093744;28;20376;-70
2023/07/09 02:52:08;;;;;;;152.68;144.00;;;;;;;31.64;34.56;101589.16;5094779;28;20043;-73
2023/07/09 02:54:34;;;;;;;158.25;150.13;;;;;;;31.61;34.58;101587.91;5095331;28;20047;-70
2023/07/09 02:56:59;;;;;;;156.88;148.05;;;;;;;31.58;34.57;101599.81;5095605;28;20032;-70
2023/07/09 02:59:26;;;;;;;153.05;144.95;;;;;;;31.56;34.79;101590.97;5095107;28;20028;-70
2023/07/09 03:01:52;;;;;;;153.00;145.13;;;;;;;31.53;34.88;101588.94;5095447;28;20024;-70
2023/07/09 03:04:20;;;;;;;153.18;144.98;;;;;;;31.50;34.65;101586.03;5095006;28;20039;-71
2023/07/09 03:06:45;;;;;;;155.02;147.20;;;;;;;31.46;34.64;101592.38;5095201;28;20024;-72
2023/07/09 03:09:11;;;;;;;150.95;143.25;;;;;;;31.43;34.98;101595.91;5094982;28;20107;-70
2023/07/09 03:11:36;;;;;;;156.50;149.25;;;;;;;31.39;34.81;101595.00;5094549;28;20049;-70
2023/07/09 03:14:02;;;;;;;157.73;149.80;;;;;;;31.37;34.96;101596.50;5077418;28;20047;-69
2023/07/09 03:16:30;;;;;;;148.90;141.65;;;;;;;31.34;35.12;101594.44;5094658;28;20459;-70
2023/07/09 03:18:55;;;;;;;149.30;141.75;;;;;;;31.31;35.02;101593.19;5094909;28;20032;-70
2023/07/09 03:21:22;;;;;;;159.00;151.00;;;;;;;31.28;34.69;101593.94;5094407;28;20035;-70
2023/07/09 03:23:48;;;;;;;150.82;143.18;;;;;;;31.25;35.09;101601.03;5094567;28;20040;-70
2023/07/09 03:26:13;;;;;;;151.63;144.10;;;;;;;31.22;34.89;101598.16;5094283;28;20041;-71
2023/07/09 03:28:38;;;;;;;158.13;149.38;;;;;;;31.19;35.24;101599.69;5095050;28;20024;-70
2023/07/09 03:31:04;;;;;;;153.70;146.27;;;;;;;31.15;35.33;101604.41;5093627;28;20032;-71
2023/07/09 03:33:29;;;;;;;145.90;139.10;;;;;;;31.14;35.25;101590.81;5093703;28;20031;-71
2023/07/09 03:35:55;;;;;;;150.93;143.73;;;;;;;31.11;35.28;101595.13;5094642;28;20028;-71
2023/07/09 03:38:21;;;;;;;145.02;137.82;;;;;;;31.08;35.35;101595.06;5094374;28;20033;-71
2023/07/09 03:40:50;;;;;;;150.48;142.32;;;;;;;31.05;35.34;101604.97;5093963;28;20028;-71
2023/07/09 03:43:15;;;;;;;151.13;141.85;;;;;;;31.02;35.49;101600.09;5094248;28;20047;-71
2023/07/09 03:45:41;;;;;;;148.82;138.55;;;;;;;30.98;35.53;101604.78;5093615;28;20032;-70
2023/07/09 03:48:06;;;;;;;145.55;136.25;;;;;;;30.95;35.42;101595.16;5094465;28;20032;-70
2023/07/09 03:50:32;;;;;;;148.93;139.18;;;;;;;30.92;35.56;101595.06;5094723;28;20027;-70
2023/07/09 03:52:57;;;;;;;148.18;139.55;;;;;;;30.91;35.64;101596.25;5094647;28;20038;-70
2023/07/09 03:55:26;;;;;;;146.65;137.18;;;;;;;30.87;35.57;101601.75;5093816;28;20123;-72
2023/07/09 03:57:52;;;;;;;148.05;139.55;;;;;;;30.83;35.79;101598.84;5093995;28;20035;-71
2023/07/09 04:00:18;;;;;;;149.43;141.52;;;;;;;30.82;35.93;101600.03;5092773;28;20036;-70
2023/07/09 04:02:44;;;;;;;146.93;138.38;;;;;;;30.78;35.72;101596.31;5093667;28;20082;-71
2023/07/09 04:05:10;;;;;;;146.68;138.75;;;;;;;30.76;35.86;101593.06;5094156;28;20028;-71
2023/07/09 04:07:35;;;;;;;158.40;148.50;;;;;;;30.73;35.71;101599.38;5093861;28;20067;-71
2023/07/09 04:10:01;;;;;;;145.77;137.52;;;;;;;30.71;35.89;101592.53;5093810;28;20063;-71
2023/07/09 04:12:27;;;;;;;155.90;146.43;;;;;;;30.67;35.93;101589.66;5094236;28;20139;-71
2023/07/09 04:14:52;;;;;;;144.98;136.38;;;;;;;30.64;36.26;101584.78;5093483;28;20468;-71
2023/07/09 04:17:17;;;;;;;147.65;139.73;;;;;;;30.61;36.17;101583.53;5093858;28;20032;-71
2023/07/09 04:19:43;;;;;;;153.20;144.80;;;;;;;30.59;36.17;101590.63;5093776;28;20028;-71
2023/07/09 04:22:10;;;;;;;143.52;134.98;;;;;;;30.57;36.42;101595.78;5093955;28;20420;-71
2023/07/09 04:24:36;;;;;;;139.40;131.88;;;;;;;30.54;36.13;101593.69;5093603;28;20063;-71
2023/07/09 04:27:02;;;;;;;143.25;134.77;;;;;;;30.52;36.35;101601.63;5093502;28;20028;-71
2023/07/09 04:29:29;;;;;;;141.32;133.95;;;;;;;30.49;36.59;101593.94;5092906;28;20066;-70
2023/07/09 04:31:54;;;;;;;145.25;137.02;;;;;;;30.46;36.33;101592.69;5093494;28;20032;-71
2023/07/09 04:34:20;;;;;;;143.07;135.23;;;;;;;30.44;36.50;101594.22;5093479;28;20085;-71
2023/07/09 04:36:45;;;;;;;146.15;138.75;;;;;;;30.42;36.36;101591.81;5093443;28;20484;-70
2023/07/09 04:39:11;;;;;;;147.82;139.68;;;;;;;30.39;36.57;101592.50;5092193;28;20356;-71
2023/07/09 04:41:36;;;;;;;138.90;131.95;;;;;;;30.37;36.59;101589.28;5093517;28;20039;-72
2023/07/09 04:44:01;;;;;;;145.52;138.13;;;;;;;30.33;36.71;101589.16;5093335;28;20034;-71
2023/07/09 04:46:27;;;;;;;143.20;135.18;;;;;;;30.32;36.81;101589.53;5091835;28;20035;-72
2023/07/09 04:48:52;;;;;;;143.95;136.35;;;;;;;30.29;36.77;101587.44;5093629;28;20028;-71
2023/07/09 04:51:18;;;;;;;140.38;132.80;;;;;;;30.26;36.81;101588.16;5093338;28;20067;-71
2023/07/09 04:53:43;;;;;;;145.32;136.85;;;;;;;30.24;36.69;101580.19;5093591;28;20448;-80
2023/07/09 04:56:09;;;;;;;144.73;136.77;;;;;;;30.20;37.03;101582.81;5092016;28;20025;-71
2023/07/09 04:58:35;;;;;;;149.30;140.88;;;;;;;30.18;36.99;101587.94;5093293;28;20037;-71
2023/07/09 05:01:00;;;;;;;149.18;140.82;;;;;;;30.17;36.98;101591.09;5093211;28;20028;-71
2023/07/09 05:03:26;;;;;;;152.07;143.75;;;;;;;30.15;36.90;101597.00;5093496;28;20036;-71
2023/07/09 05:05:52;;;;;;;150.18;141.70;;;;;;;30.13;37.06;101598.53;5093057;28;20468;-71
2023/07/09 05:08:18;;;;;;;145.75;137.48;;;;;;;30.11;37.23;101596.09;5092929;28;20036;-72
2023/07/09 05:10:45;;;;;;;148.55;139.35;;;;;;;30.08;37.26;101596.00;5093202;28;20036;-80
2023/07/09 05:13:11;;;;;;;145.60;137.10;;;;;;;30.06;37.33;101593.56;5093292;28;20074;-73
2023/07/09 05:15:40;;;;;;;147.90;138.90;;;;;;;30.05;37.45;101600.31;5096987;28;20047;-70
2023/07/09 05:18:05;;;;;;;148.68;139.88;;;;;;;30.02;37.29;101598.25;5097330;28;20024;-73
2023/07/09 05:20:31;;;;;;;146.18;138.30;;;;;;;30.00;37.49;101597.78;5095800;28;20394;-71
2023/07/09 05:22:56;;;;;;;139.60;131.13;;;;;;;30.00;37.59;101602.56;5097209;28;20057;-71
2023/07/09 05:25:21;;;;;;;143.00;135.63;;;;;;;29.96;37.72;101589.34;5095607;28;20454;-72
2023/07/09 05:27:47;;;;;;;140.68;133.48;;;;;;;29.95;37.53;101598.84;5095565;28;20032;-80
2023/07/09 05:30:12;;;;;;;152.60;144.15;;;;;;;29.94;37.72;101602.81;5097143;28;20114;-71
2023/07/09 05:32:38;;;;;;;137.68;129.68;;;;;;;29.93;37.87;101600.38;5097513;28;20036;-72
2023/07/09 05:35:04;;;;;;;142.68;134.70;;;;;;;29.90;37.75;101596.31;5096742;28;20495;-71
2023/07/09 05:37:29;;;;;;;142.48;135.13;;;;;;;29.90;37.81;101595.50;5096648;28;20039;-72
2023/07/09 05:39:55;;;;;;;138.93;131.63;;;;;;;29.88;37.89;101598.63;5096653;28;20036;-72
2023/07/09 05:42:20;;;;;;;140.55;133.57;;;;;;;29.88;37.89;101597.84;5096617;28;20120;-71
2023/07/09 05:44:46;;;;;;;142.98;134.70;;;;;;;29.86;37.88;101594.59;5096777;28;20060;-71
2023/07/09 05:47:11;;;;;;;148.15;140.45;;;;;;;29.85;37.79;101593.78;5096515;28;20152;-71
2023/07/09 05:49:38;;;;;;;141.60;134.20;;;;;;;29.85;37.98;101598.53;5096978;28;20035;-71
2023/07/09 05:52:03;;;;;;;140.32;133.07;;;;;;;29.84;38.33;101594.16;5096360;28;20081;-71
2023/07/09 05:54:29;;;;;;;146.75;139.27;;;;;;;29.83;38.08;101606.44;5096707;28;20372;-71
2023/07/09 05:56:54;;;;;;;145.48;138.27;;;;;;;29.84;38.28;101608.06;5096216;28;20028;-71
2023/07/09 05:59:20;;;;;;;139.27;132.07;;;;;;;29.82;38.28;101608.41;5096264;28;20032;-71
2023/07/09 06:01:45;;;;;;;137.13;129.90;;;;;;;29.82;38.35;101622.34;5096268;28;20043;-71
2023/07/09 06:04:13;;;;;;;142.25;134.82;;;;;;;29.81;38.30;101615.16;5095865;28;20032;-75
2023/07/09 06:06:41;;;;;;;138.27;131.30;;;;;;;29.80;38.77;101607.16;5096108;28;20037;-71
2023/07/09 06:09:07;;;;;;;137.60;130.60;;;;;;;29.80;38.29;101607.16;5096318;28;20123;-71
2023/07/09 06:11:33;;;;;;;145.20;137.35;;;;;;;29.80;38.44;101609.94;5095914;28;20028;-71
2023/07/09 06:13:59;;;;;;;144.35;137.10;;;;;;;29.79;38.70;101614.69;5095756;28;20078;-75
2023/07/09 06:16:24;;;;;;;141.70;134.07;;;;;;;29.79;38.73;101622.22;5094679;28;20028;-71
2023/07/09 06:18:50;;;;;;;139.73;132.57;;;;;;;29.79;38.76;101620.28;5095971;28;20116;-78
2023/07/09 06:21:15;;;;;;;141.85;134.75;;;;;;;29.79;38.71;101613.88;5095921;28;20028;-70
2023/07/09 06:23:41;;;;;;;141.63;134.43;;;;;;;29.79;38.94;101616.66;5096332;28;20056;-70
2023/07/09 06:26:06;;;;;;;136.73;129.63;;;;;;;29.78;38.92;101613.06;5094359;28;20032;-72
2023/07/09 06:28:32;;;;;;;141.15;132.95;;;;;;;29.79;38.95;101616.66;5095479;28;20024;-70
2023/07/09 06:30:58;;;;;;;142.15;134.77;;;;;;;29.78;38.64;101615.84;5095620;28;20028;-70
2023/07/09 06:33:25;;;;;;;141.70;134.27;;;;;;;29.80;38.67;101618.28;5095575;28;20024;-70
2023/07/09 06:35:53;;;;;;;142.85;135.00;;;;;;;29.80;38.62;101618.28;5095613;28;20067;-76
2023/07/09 06:38:19;;;;;;;;;;;;;;;29.80;37.65;101618.28;5096037;28;20058;-70
2023/07/09 06:40:45;;;;;;;142.65;135.80;;;;;;;29.80;38.19;101618.28;5095261;28;19912;-71
2023/07/09 06:43:11;;;;;;;142.10;134.63;;;;;;;29.80;38.47;101630.22;5095484;28;20020;-71
2023/07/09 06:45:36;;;;;;;137.60;130.45;;;;;;;29.80;38.73;101619.09;5095315;28;20028;-71
2023/07/09 06:48:01;;;;;;;136.15;129.05;;;;;;;29.82;38.70;101613.19;5095722;28;20032;-70
2023/07/09 06:50:27;;;;;;;144.50;136.70;;;;;;;29.82;38.98;101621.53;5095158;28;20073;-70
2023/07/09 06:52:52;;;;;;;137.55;130.75;;;;;;;29.83;39.11;101623.16;5095236;28;20173;-82
2023/07/09 06:55:18;;;;;;;136.27;129.52;;;;;;;29.84;39.28;101624.78;5094098;28;20173;-71
2023/07/09 06:57:43;;;;;;;138.20;131.48;;;;;;;29.85;38.71;101621.63;5095577;28;20056;-70
2023/07/09 07:00:10;;;;;;;141.10;134.00;;;;;;;29.87;39.69;101622.09;5095220;28;20135;-70
2023/07/09 07:02:35;;;;;;;146.13;138.95;;;;;;;29.89;39.59;101627.31;5094921;28;20123;-71
2023/07/09 07:05:01;;;;;;;137.90;131.18;;;;;;;29.90;39.68;101617.78;5093491;28;20425;-74
2023/07/09 07:07:26;;;;;;;136.63;129.45;;;;;;;29.90;39.89;101626.16;5076658;28;20042;-70
2023/07/09 07:09:52;;;;;;;137.02;130.05;;;;;;;29.92;39.69;101626.63;5095006;28;20043;-70
2023/07/09 07:12:26;;;;;;;140.52;133.30;;;;;;;29.93;39.36;101633.78;5094620;28;20048;-71
2023/07/09 07:14:52;;;;;;;137.38;131.10;;;;;;;29.94;39.46;101630.66;5094701;28;20035;-71
2023/07/09 07:17:18;;;;;;;135.23;128.48;;;;;;;29.95;39.48;101625.91;5094662;28;20033;-72
2023/07/09 07:19:43;;;;;;;136.32;130.02;;;;;;;29.97;39.22;101629.16;5094926;28;20036;-72
2023/07/09 07:22:09;;;;;;;138.02;131.23;;;;;;;29.99;39.57;101624.03;5093558;28;20387;-71
2023/07/09 07:24:34;;;;;;;139.45;132.70;;;;;;;30.02;39.72;101628.09;5094506;28;20081;-71
2023/07/09 07:26:59;;;;;;;137.13;130.52;;;;;;;30.04;39.59;101625.72;5093213;28;20034;-72
2023/07/09 07:29:25;;;;;;;137.95;131.55;;;;;;;30.07;39.40;101625.03;5095283;28;20028;-71
2023/07/09 07:31:50;;;;;;;135.93;129.43;;;;;;;30.09;39.33;101622.69;5094474;28;20036;-72
2023/07/09 07:34:16;;;;;;;136.65;129.90;;;;;;;30.12;39.20;101622.00;5094582;28;20250;-71
2023/07/09 07:36:41;;;;;;;142.82;136.07;;;;;;;30.14;39.25;101617.69;5093828;28;20532;-73
2023/07/09 07:39:06;;;;;;;141.63;134.82;;;;;;;30.16;39.43;101615.38;5094251;28;20032;-72
2023/07/09 07:41:32;;;;;;;135.65;129.38;;;;;;;30.19;39.07;101620.22;5093101;28;20453;-71
2023/07/09 07:43:57;;;;;;;136.45;130.00;;;;;;;30.21;39.13;101617.06;5094398;28;20028;-81
2023/07/09 07:46:23;;;;;;;138.85;132.35;;;;;;;30.24;39.04;101612.75;5094092;28;20028;-72
2023/07/09 07:48:48;;;;;;;148.13;141.45;;;;;;;30.27;39.04;101612.91;5094237;28;20032;-72
2023/07/09 07:51:13;;;;;;;138.27;131.55;;;;;;;30.30;38.86;101620.53;5094117;28;20032;-71
2023/07/09 07:53:39;;;;;;;135.05;128.65;;;;;;;30.32;38.92;101621.00;5093817;28;20042;-72
2023/07/09 07:56:04;;;;;;;145.65;138.70;;;;;;;30.37;38.84;101623.53;5093903;28;20036;-71
2023/07/09 07:58:31;;;;;;;136.18;129.48;;;;;;;30.41;39.08;101624.41;5094563;28;20036;-70
2023/07/09 08:00:57;;;;;;;135.82;129.38;;;;;;;30.45;39.09;101630.09;5095208;28;20035;-71
2023/07/09 08:03:23;;;;;;;138.65;131.70;;;;;;;30.50;39.14;101623.47;5093886;28;20032;-72
2023/07/09 08:05:50;;;;;;;141.55;134.75;;;;;;;30.53;39.19;101614.38;5092636;28;20028;-72
2023/07/09 08:08:15;;;;;;;139.52;133.10;;;;;;;30.58;39.22;101608.53;5093794;28;20127;-71
2023/07/09 08:10:40;;;;;;;142.52;135.63;;;;;;;30.62;39.08;101617.81;5093512;28;20035;-71
2023/07/09 08:13:06;;;;;;;144.73;138.13;;;;;;;30.66;39.03;101613.13;5093376;28;20063;-69
2023/07/09 08:15:32;;;;;;;146.52;139.82;;;;;;;30.71;38.92;101618.44;5093922;28;20039;-72
2023/07/09 08:17:57;;;;;;;148.52;141.60;;;;;;;30.76;38.85;101608.97;5093716;28;20032;-74
2023/07/09 08:20:23;;;;;;;142.73;135.95;;;;;;;30.82;38.84;101618.75;5094042;28;20036;-72
2023/07/09 08:22:48;;;;;;;143.80;137.25;;;;;;;30.88;38.69;101606.13;5092851;28;20036;-72
2023/07/09 08:25:13;;;;;;;144.25;137.82;;;;;;;30.92;38.72;101601.47;5093585;28;20043;-72
2023/07/09 08:27:39;;;;;;;147.00;140.23;;;;;;;30.99;38.64;101611.97;5093522;28;20036;-71
2023/07/09 08:30:06;;;;;;;150.43;143.43;;;;;;;31.05;38.61;101600.19;5093560;28;20024;-73
2023/07/09 08:32:31;;;;;;;141.75;134.85;;;;;;;31.10;38.47;101603.84;5093704;28;20031;-72
2023/07/09 08:34:56;;;;;;;150.60;143.82;;;;;;;31.15;38.36;101604.41;5093478;28;20132;-73
2023/07/09 08:37:22;;;;;;;149.70;142.60;;;;;;;31.22;38.79;101612.94;5093343;28;20028;-71
2023/07/09 08:39:47;;;;;;;144.02;137.52;;;;;;;31.27;38.33;101609.03;5092226;28;20375;-72
2023/07/09 08:42:25;;;;;;;148.95;140.88;;;;;;;31.34;38.36;101614.00;5091770;28;20102;-72
2023/07/09 08:45:08;;;;;;;152.50;144.98;;;;;;;31.42;38.36;101615.78;5093246;28;20028;-72
2023/07/09 08:47:40;;;;;;;157.15;149.90;;;;;;;31.48;38.42;101619.94;5093384;28;20031;-72
2023/07/09 08:50:12;;;;;;;159.55;152.38;;;;;;;31.54;38.41;101612.06;5096907;28;20032;-71
2023/07/09 08:52:41;;;;;;;151.15;144.45;;;;;;;31.61;38.26;101617.81;5097800;28;20032;-72
2023/07/09 08:55:11;;;;;;;155.02;148.00;;;;;;;31.67;37.92;101617.16;5097666;28;20456;-77
2023/07/09 08:57:47;;;;;;;142.65;136.10;;;;;;;31.76;38.33;101613.34;5097459;28;20024;-71
2023/07/09 09:00:34;;;;;;;151.27;144.40;;;;;;;31.82;38.01;101603.50;5097937;28;20383;-70
2023/07/09 09:03:05;;;;;;;157.23;150.20;;;;;;;31.89;37.87;101606.44;5097435;28;20372;-71
2023/07/09 09:05:33;;;;;;;154.10;147.38;;;;;;;31.97;37.66;101601.81;5096930;28;20133;-76
2023/07/09 09:08:05;;;;;;;153.48;146.65;;;;;;;32.03;37.56;101591.94;5096092;28;20028;-72
2023/07/09 09:10:42;;;;;;;150.60;143.80;;;;;;;32.11;37.26;101594.53;5097382;28;20463;-73
2023/07/09 09:13:13;;;;;;;153.40;144.98;;;;;;;32.20;37.99;101591.50;5096943;28;20127;-77
2023/07/09 09:15:40;;;;;;;158.65;151.10;;;;;;;32.28;37.61;101584.03;5095739;28;20395;-70
2023/07/09 09:18:25;;;;;;;154.32;147.30;;;;;;;32.37;37.46;101583.81;5097762;28;20028;-70
2023/07/09 09:21:04;;;;;;;159.98;152.98;;;;;;;32.45;37.26;101585.56;5096945;28;20077;-71
2023/07/09 09:23:40;;;;;;;166.25;159.18;;;;;;;32.53;37.13;101584.53;5096907;28;20024;-70
2023/07/09 09:26:16;;;;;;;160.13;152.98;;;;;;;32.61;37.11;101586.28;5097302;28;20115;-72
2023/07/09 09:28:41;;;;;;;161.82;154.77;;;;;;;32.69;36.79;101595.59;5097153;28;20028;-70
2023/07/09 09:31:11;;;;;;;161.68;154.52;;;;;;;32.77;37.25;101594.53;5097156;28;20035;-70
2023/07/09 09:33:41;;;;;;;159.88;152.68;;;;;;;32.84;36.77;101588.25;5096839;28;20031;-70
2023/07/09 09:36:14;;;;;;;163.75;156.65;;;;;;;32.93;36.48;101583.19;5097001;28;20535;-71
2023/07/09 09:38:39;;;;;;;163.60;156.25;;;;;;;33.01;36.73;101570.09;5096680;28;20035;-70
2023/07/09 09:41:04;;;;;;;159.05;151.75;;;;;;;33.09;36.46;101569.06;5096424;28;20028;-70
2023/07/09 09:43:32;;;;;;;161.50;154.40;;;;;;;33.16;36.81;101569.97;5096641;28;20060;-70
2023/07/09 09:46:00;;;;;;;;;;;;;;;33.24;36.58;101570.88;5096904;28;20073;-71
2023/07/09 09:48:32;;;;;;;157.60;150.80;;;;;;;33.33;36.27;101570.59;5096228;28;20338;-74
2023/07/09 09:51:01;;;;;;;169.25;162.13;;;;;;;33.41;36.18;101572.31;5096208;28;20360;-71
2023/07/09 09:53:28;;;;;;;172.90;165.40;;;;;;;33.50;35.93;101567.22;5096622;28;20446;-70
2023/07/09 09:55:56;;;;;;;176.38;168.95;;;;;;;33.56;35.67;101568.53;5095137;28;20024;-70
2023/07/09 09:58:28;;;;;;;176.68;168.50;;;;;;;33.67;35.62;101574.28;5094886;28;20448;-71
2023/07/09 10:00:55;;;;;;;168.13;160.93;;;;;;;33.77;35.81;101581.22;5095635;28;20028;-70
2023/07/09 10:03:21;;;;;;;;;;;;;;;33.87;35.66;101586.13;5096853;28;20119;-69
2023/07/09 10:05:56;;;;;;;173.30;165.70;;;;;;;33.95;35.43;101587.81;5094868;28;20018;-68
2023/07/09 10:08:30;;;;;;;175.50;167.60;;;;;;;34.04;35.21;101593.09;5096275;28;20020;-71
2023/07/09 10:11:08;;;;;;;175.82;168.05;;;;;;;34.11;35.36;101598.03;5096595;28;20041;-71
2023/07/09 10:13:39;;;;;;;172.57;164.85;;;;;;;34.19;35.50;101594.09;5096616;28;20109;-72
2023/07/09 10:16:16;;;;;;;175.45;167.95;;;;;;;34.27;34.89;101595.78;5096600;28;20036;-72
2023/07/09 10:18:55;;;;;;;178.43;170.70;;;;;;;34.36;34.89;101607.50;5096435;28;20028;-72
2023/07/09 10:21:20;;;;;;;174.25;166.25;;;;;;;34.45;34.88;101616.41;5095922;28;20036;-72
2023/07/09 10:23:52;;;;;;;184.18;176.23;;;;;;;34.55;34.88;101608.47;5096403;28;20031;-72
2023/07/09 10:26:30;;;;;;;181.15;173.23;;;;;;;34.64;35.18;101611.78;5096103;28;20040;-74
2023/07/09 10:29:39;;;;;;;184.48;175.93;;;;;;;34.74;35.19;101613.09;5096412;28;20107;-69
2023/07/09 10:32:40;;;;;;;183.13;175.45;;;;;;;34.86;34.73;101604.38;5061529;28;20040;-67
2023/07/09 10:35:20;;;;;;;181.38;173.77;;;;;;;34.96;34.37;101603.63;5079591;28;20051;-70
2023/07/09 10:38:20;;;;;;;183.88;176.18;;;;;;;35.05;34.81;101601.31;5095877;28;20031;-69
2023/07/09 10:40:54;;;;;;;182.77;175.07;;;;;;;35.15;34.71;101598.97;5095715;28;20089;-74
2023/07/09 10:43:30;;;;;;;189.50;181.23;;;;;;;35.25;34.59;101607.44;5095628;28;20027;-69
2023/07/09 10:45:59;;;;;;;193.35;185.20;;;;;;;35.37;33.95;101609.13;5095510;28;20471;-69
2023/07/09 10:48:33;;;;;;;186.82;178.93;;;;;;;35.45;33.98;101607.16;5095401;28;20039;-71
2023/07/09 10:51:02;;;;;;;195.95;187.18;;;;;;;35.54;34.17;101605.63;5095591;28;20020;-69
2023/07/09 10:53:38;;;;;;;198.20;189.50;;;;;;;35.64;33.91;101597.66;5095370;28;20024;-69
2023/07/09 10:56:17;;;;;;;193.93;185.55;;;;;;;35.73;33.82;101603.72;5095753;28;20031;-69
2023/07/09 10:58:49;;;;;;;187.55;179.63;;;;;;;35.82;33.59;101595.72;5095045;28;20027;-69